sensor_id;sensor_type;location;lat;lon;timestamp;temperature;humidity
50013;DHT22;35901;48.694;9.476;2023-04-16T00:01:22;6.70;99.90
50013;DHT22;35901;48.694;9.476;2023-04-16T00:03:47;6.80;99.90
50013;DHT22;35901;48.694;9.476;2023-04-16T00:06:13;6.70;99.90
50013;DHT22;35901;48.694;9.476;2023-04-16T00:08:39;6.70;99.90
50013;DHT22;35901;48.694;9.476;2023-04-16T00:11:06;6.70;99.90
50013;DHT22;35901;48.694;9.476;2023-04-16T00:13:31;6.80;99.90
50013;DHT22;35901;48.694;9.476;2023-04-16T00:15:57;6.80;99.90
50013;DHT22;35901;48.694;9.476;2023-04-16T00:18:23;6.70;99.90
50013;DHT22;35901;48.694;9.476;2023-04-16T00:20:49;6.70;99.90
50013;DHT22;35901;48.694;9.476;2023-04-16T00:23:15;6.80;99.90
50013;DHT22;35901;48.694;9.476;2023-04-16T00:25:41;6.70;99.90
50013;DHT22;35901;48.694;9.476;2023-04-16T00:28:07;6.70;99.90
50013;DHT22;35901;48.694;9.476;2023-04-16T00:30:34;6.70;99.90
50013;DHT22;35901;48.694;9.476;2023-04-16T00:32:59;6.80;99.90
50013;DHT22;35901;48.694;9.476;2023-04-16T00:35:25;6.70;99.90
50013;DHT22;35901;48.694;9.476;2023-04-16T00:37:51;6.70;99.90
50013;DHT22;35901;48.694;9.476;2023-04-16T00:40:17;6.70;99.90
50013;DHT22;35901;48.694;9.476;2023-04-16T00:42:42;6.70;99.90
50013;DHT22;35901;48.694;9.476;2023-04-16T00:45:09;6.70;99.90
50013;DHT22;35901;48.694;9.476;2023-04-16T00:47:35;6.70;99.90
50013;DHT22;35901;48.694;9.476;2023-04-16T00:50:02;6.70;99.90
50013;DHT22;35901;48.694;9.476;2023-04-16T00:52:30;6.70;99.90
50013;DHT22;35901;48.694;9.476;2023-04-16T00:54:56;6.70;99.90
50013;DHT22;35901;48.694;9.476;2023-04-16T00:57:22;6.70;99.90
50013;DHT22;35901;48.694;9.476;2023-04-16T00:59:48;6.70;99.90
50013;DHT22;35901;48.694;9.476;2023-04-16T01:02:15;6.70;99.90
50013;DHT22;35901;48.694;9.476;2023-04-16T01:04:41;6.70;99.90
50013;DHT22;35901;48.694;9.476;2023-04-16T01:07:07;6.70;99.90
50013;DHT22;35901;48.694;9.476;2023-04-16T01:09:32;6.70;99.90
50013;DHT22;35901;48.694;9.476;2023-04-16T01:11:58;6.70;99.90
50013;DHT22;35901;48.694;9.476;2023-04-16T01:14:24;6.70;99.90
50013;DHT22;35901;48.694;9.476;2023-04-16T01:16:49;6.70;99.90
50013;DHT22;35901;48.694;9.476;2023-04-16T01:19:15;6.70;99.90
50013;DHT22;35901;48.694;9.476;2023-04-16T01:21:41;6.70;99.90
50013;DHT22;35901;48.694;9.476;2023-04-16T01:24:06;6.70;99.90
50013;DHT22;35901;48.694;9.476;2023-04-16T01:26:32;6.70;99.90
50013;DHT22;35901;48.694;9.476;2023-04-16T01:28:58;6.70;99.90
50013;DHT22;35901;48.694;9.476;2023-04-16T01:31:24;6.70;99.90
50013;DHT22;35901;48.694;9.476;2023-04-16T01:34:03;6.70;99.90
50013;DHT22;35901;48.694;9.476;2023-04-16T01:36:29;6.70;99.90
50013;DHT22;35901;48.694;9.476;2023-04-16T01:38:55;6.70;99.90
50013;DHT22;35901;48.694;9.476;2023-04-16T01:41:20;6.70;99.90
50013;DHT22;35901;48.694;9.476;2023-04-16T01:43:46;6.60;99.90
50013;DHT22;35901;48.694;9.476;2023-04-16T01:46:19;6.70;99.90
50013;DHT22;35901;48.694;9.476;2023-04-16T01:48:45;6.60;99.90
50013;DHT22;35901;48.694;9.476;2023-04-16T01:51:11;6.60;99.90
50013;DHT22;35901;48.694;9.476;2023-04-16T01:53:37;6.60;99.90
50013;DHT22;35901;48.694;9.476;2023-04-16T01:56:03;6.60;99.90
50013;DHT22;35901;48.694;9.476;2023-04-16T01:58:30;6.60;99.90
50013;DHT22;35901;48.694;9.476;2023-04-16T02:00:56;6.60;99.90
50013;DHT22;35901;48.694;9.476;2023-04-16T02:03:22;6.60;99.90
50013;DHT22;35901;48.694;9.476;2023-04-16T02:05:49;6.60;99.90
50013;DHT22;35901;48.694;9.476;2023-04-16T02:08:16;6.60;99.90
50013;DHT22;35901;48.694;9.476;2023-04-16T02:10:45;6.60;99.90
50013;DHT22;35901;48.694;9.476;2023-04-16T02:13:10;6.60;99.90
50013;DHT22;35901;48.694;9.476;2023-04-16T02:15:36;6.60;99.90
50013;DHT22;35901;48.694;9.476;2023-04-16T02:18:02;6.60;99.90
50013;DHT22;35901;48.694;9.476;2023-04-16T02:20:28;6.60;99.90
50013;DHT22;35901;48.694;9.476;2023-04-16T02:22:58;6.60;99.90
50013;DHT22;35901;48.694;9.476;2023-04-16T02:25:24;6.60;99.90
50013;DHT22;35901;48.694;9.476;2023-04-16T02:27:52;6.60;99.90
50013;DHT22;35901;48.694;9.476;2023-04-16T02:30:27;6.60;99.90
50013;DHT22;35901;48.694;9.476;2023-04-16T02:32:53;6.60;99.90
50013;DHT22;35901;48.694;9.476;2023-04-16T02:40:10;6.60;99.90
50013;DHT22;35901;48.694;9.476;2023-04-16T02:42:36;6.60;99.90
50013;DHT22;35901;48.694;9.476;2023-04-16T02:45:02;6.60;99.90
50013;DHT22;35901;48.694;9.476;2023-04-16T02:47:27;6.60;99.90
50013;DHT22;35901;48.694;9.476;2023-04-16T02:49:53;6.50;99.90
50013;DHT22;35901;48.694;9.476;2023-04-16T02:52:19;6.60;99.90
50013;DHT22;35901;48.694;9.476;2023-04-16T02:54:44;6.60;99.90
50013;DHT22;35901;48.694;9.476;2023-04-16T02:57:10;6.60;99.90
50013;DHT22;35901;48.694;9.476;2023-04-16T02:59:36;6.60;99.90
50013;DHT22;35901;48.694;9.476;2023-04-16T03:02:01;6.60;99.90
50013;DHT22;35901;48.694;9.476;2023-04-16T03:04:27;6.60;99.90
50013;DHT22;35901;48.694;9.476;2023-04-16T03:06:52;6.60;99.90
50013;DHT22;35901;48.694;9.476;2023-04-16T03:09:18;6.60;99.90
50013;DHT22;35901;48.694;9.476;2023-04-16T03:11:43;6.60;99.90
50013;DHT22;35901;48.694;9.476;2023-04-16T03:14:09;6.60;99.90
50013;DHT22;35901;48.694;9.476;2023-04-16T03:16:35;6.60;99.90
50013;DHT22;35901;48.694;9.476;2023-04-16T03:19:00;6.60;99.90
50013;DHT22;35901;48.694;9.476;2023-04-16T03:21:26;6.60;99.90
50013;DHT22;35901;48.694;9.476;2023-04-16T03:23:52;6.60;99.90
50013;DHT22;35901;48.694;9.476;2023-04-16T03:26:20;6.60;99.90
50013;DHT22;35901;48.694;9.476;2023-04-16T03:28:46;6.60;99.90
50013;DHT22;35901;48.694;9.476;2023-04-16T03:31:12;6.60;99.90
50013;DHT22;35901;48.694;9.476;2023-04-16T03:33:37;6.60;99.90
50013;DHT22;35901;48.694;9.476;2023-04-16T03:36:04;6.60;99.90
50013;DHT22;35901;48.694;9.476;2023-04-16T03:38:30;6.60;99.90
50013;DHT22;35901;48.694;9.476;2023-04-16T03:40:57;6.60;99.90
50013;DHT22;35901;48.694;9.476;2023-04-16T03:43:23;6.60;99.90
50013;DHT22;35901;48.694;9.476;2023-04-16T03:45:49;6.60;99.90
50013;DHT22;35901;48.694;9.476;2023-04-16T03:48:18;6.60;99.90
50013;DHT22;35901;48.694;9.476;2023-04-16T03:50:46;6.60;99.90
50013;DHT22;35901;48.694;9.476;2023-04-16T03:53:13;6.60;99.90
50013;DHT22;35901;48.694;9.476;2023-04-16T03:55:43;6.60;99.90
50013;DHT22;35901;48.694;9.476;2023-04-16T03:58:09;6.60;99.90
50013;DHT22;35901;48.694;9.476;2023-04-16T04:00:35;6.60;99.90
50013;DHT22;35901;48.694;9.476;2023-04-16T04:03:13;6.60;99.90
50013;DHT22;35901;48.694;9.476;2023-04-16T04:05:42;6.60;99.90
50013;DHT22;35901;48.694;9.476;2023-04-16T04:08:10;6.60;99.90
50013;DHT22;35901;48.694;9.476;2023-04-16T04:10:36;6.60;99.90
50013;DHT22;35901;48.694;9.476;2023-04-16T04:13:05;6.60;99.90
50013;DHT22;35901;48.694;9.476;2023-04-16T04:15:32;6.60;99.90
50013;DHT22;35901;48.694;9.476;2023-04-16T04:17:58;6.60;99.90
50013;DHT22;35901;48.694;9.476;2023-04-16T04:20:24;6.60;99.90
50013;DHT22;35901;48.694;9.476;2023-04-16T04:22:51;6.60;99.90
50013;DHT22;35901;48.694;9.476;2023-04-16T04:25:20;6.60;99.90
50013;DHT22;35901;48.694;9.476;2023-04-16T04:27:46;6.60;99.90
50013;DHT22;35901;48.694;9.476;2023-04-16T04:30:12;6.60;99.90
50013;DHT22;35901;48.694;9.476;2023-04-16T04:32:39;6.60;99.90
50013;DHT22;35901;48.694;9.476;2023-04-16T04:35:06;6.60;99.90
50013;DHT22;35901;48.694;9.476;2023-04-16T04:37:31;6.60;99.90
50013;DHT22;35901;48.694;9.476;2023-04-16T04:39:57;6.50;99.90
50013;DHT22;35901;48.694;9.476;2023-04-16T04:42:23;6.60;99.90
50013;DHT22;35901;48.694;9.476;2023-04-16T04:44:49;6.60;99.90
50013;DHT22;35901;48.694;9.476;2023-04-16T04:47:16;6.60;99.90
50013;DHT22;35901;48.694;9.476;2023-04-16T04:49:41;6.60;99.90
50013;DHT22;35901;48.694;9.476;2023-04-16T04:52:07;6.60;99.90
50013;DHT22;35901;48.694;9.476;2023-04-16T04:54:33;6.60;99.90
50013;DHT22;35901;48.694;9.476;2023-04-16T04:56:59;6.60;99.90
50013;DHT22;35901;48.694;9.476;2023-04-16T04:59:25;6.60;99.90
50013;DHT22;35901;48.694;9.476;2023-04-16T05:01:51;6.60;99.90
50013;DHT22;35901;48.694;9.476;2023-04-16T05:04:17;6.60;99.90
50013;DHT22;35901;48.694;9.476;2023-04-16T05:06:43;6.60;99.90
50013;DHT22;35901;48.694;9.476;2023-04-16T05:09:09;6.60;99.90
50013;DHT22;35901;48.694;9.476;2023-04-16T05:11:37;6.60;99.90
50013;DHT22;35901;48.694;9.476;2023-04-16T05:14:03;6.60;99.90
50013;DHT22;35901;48.694;9.476;2023-04-16T05:16:29;6.60;99.90
50013;DHT22;35901;48.694;9.476;2023-04-16T05:18:55;6.60;99.90
50013;DHT22;35901;48.694;9.476;2023-04-16T05:21:21;6.70;99.90
50013;DHT22;35901;48.694;9.476;2023-04-16T05:23:46;6.70;99.90
50013;DHT22;35901;48.694;9.476;2023-04-16T05:26:12;6.70;99.90
50013;DHT22;35901;48.694;9.476;2023-04-16T05:28:37;6.70;99.90
50013;DHT22;35901;48.694;9.476;2023-04-16T05:31:03;6.70;99.90
50013;DHT22;35901;48.694;9.476;2023-04-16T05:33:29;6.70;99.90
50013;DHT22;35901;48.694;9.476;2023-04-16T05:35:54;6.70;99.90
50013;DHT22;35901;48.694;9.476;2023-04-16T05:38:20;6.80;99.90
50013;DHT22;35901;48.694;9.476;2023-04-16T05:40:46;6.80;99.90
50013;DHT22;35901;48.694;9.476;2023-04-16T05:43:11;6.80;99.90
50013;DHT22;35901;48.694;9.476;2023-04-16T05:45:37;6.80;99.90
50013;DHT22;35901;48.694;9.476;2023-04-16T05:48:06;6.80;99.90
50013;DHT22;35901;48.694;9.476;2023-04-16T05:50:34;6.80;99.90
50013;DHT22;35901;48.694;9.476;2023-04-16T05:53:00;6.80;99.90
50013;DHT22;35901;48.694;9.476;2023-04-16T05:55:26;6.80;99.90
50013;DHT22;35901;48.694;9.476;2023-04-16T05:57:52;6.80;99.90
50013;DHT22;35901;48.694;9.476;2023-04-16T06:00:18;6.80;99.90
50013;DHT22;35901;48.694;9.476;2023-04-16T06:02:43;6.80;99.90
50013;DHT22;35901;48.694;9.476;2023-04-16T06:05:09;6.80;99.90
50013;DHT22;35901;48.694;9.476;2023-04-16T06:07:35;6.80;99.90
50013;DHT22;35901;48.694;9.476;2023-04-16T06:10:00;6.90;99.90
50013;DHT22;35901;48.694;9.476;2023-04-16T06:12:26;6.90;99.90
50013;DHT22;35901;48.694;9.476;2023-04-16T06:14:51;6.90;99.90
50013;DHT22;35901;48.694;9.476;2023-04-16T06:17:17;6.90;99.90
50013;DHT22;35901;48.694;9.476;2023-04-16T06:19:44;6.90;99.90
50013;DHT22;35901;48.694;9.476;2023-04-16T06:22:09;6.90;99.90
50013;DHT22;35901;48.694;9.476;2023-04-16T06:24:35;6.90;99.90
50013;DHT22;35901;48.694;9.476;2023-04-16T06:27:01;6.90;99.90
50013;DHT22;35901;48.694;9.476;2023-04-16T06:29:27;6.90;99.90
50013;DHT22;35901;48.694;9.476;2023-04-16T06:31:53;6.90;99.90
50013;DHT22;35901;48.694;9.476;2023-04-16T06:34:19;6.90;99.90
50013;DHT22;35901;48.694;9.476;2023-04-16T06:36:45;6.90;99.90
50013;DHT22;35901;48.694;9.476;2023-04-16T06:39:10;6.90;99.90
50013;DHT22;35901;48.694;9.476;2023-04-16T06:41:36;6.90;99.90
50013;DHT22;35901;48.694;9.476;2023-04-16T06:44:02;6.90;99.90
50013;DHT22;35901;48.694;9.476;2023-04-16T06:46:27;6.90;99.90
50013;DHT22;35901;48.694;9.476;2023-04-16T06:48:53;6.90;99.90
50013;DHT22;35901;48.694;9.476;2023-04-16T06:51:18;6.90;99.90
50013;DHT22;35901;48.694;9.476;2023-04-16T06:53:45;6.90;99.90
50013;DHT22;35901;48.694;9.476;2023-04-16T06:56:10;6.90;99.90
50013;DHT22;35901;48.694;9.476;2023-04-16T06:58:36;6.90;99.90
50013;DHT22;35901;48.694;9.476;2023-04-16T07:01:02;6.90;99.90
50013;DHT22;35901;48.694;9.476;2023-04-16T07:03:27;6.90;99.90
50013;DHT22;35901;48.694;9.476;2023-04-16T07:05:53;6.90;99.90
50013;DHT22;35901;48.694;9.476;2023-04-16T07:08:18;6.90;99.90
50013;DHT22;35901;48.694;9.476;2023-04-16T07:10:44;6.90;99.90
50013;DHT22;35901;48.694;9.476;2023-04-16T07:13:10;6.90;99.90
50013;DHT22;35901;48.694;9.476;2023-04-16T07:15:35;6.90;99.90
50013;DHT22;35901;48.694;9.476;2023-04-16T07:18:01;7.00;99.90
50013;DHT22;35901;48.694;9.476;2023-04-16T07:20:27;6.90;99.90
50013;DHT22;35901;48.694;9.476;2023-04-16T07:22:52;7.00;99.90
50013;DHT22;35901;48.694;9.476;2023-04-16T07:25:18;6.90;99.90
50013;DHT22;35901;48.694;9.476;2023-04-16T07:27:43;7.00;99.90
50013;DHT22;35901;48.694;9.476;2023-04-16T07:30:09;7.00;99.90
50013;DHT22;35901;48.694;9.476;2023-04-16T07:32:35;6.90;99.90
50013;DHT22;35901;48.694;9.476;2023-04-16T07:35:01;6.90;99.90
50013;DHT22;35901;48.694;9.476;2023-04-16T07:37:28;6.90;99.90
50013;DHT22;35901;48.694;9.476;2023-04-16T07:39:54;6.90;99.90
50013;DHT22;35901;48.694;9.476;2023-04-16T07:42:22;6.90;99.90
50013;DHT22;35901;48.694;9.476;2023-04-16T07:44:47;6.90;99.90
50013;DHT22;35901;48.694;9.476;2023-04-16T07:47:13;6.90;99.90
50013;DHT22;35901;48.694;9.476;2023-04-16T07:49:38;6.90;99.90
50013;DHT22;35901;48.694;9.476;2023-04-16T07:52:05;6.90;99.90
50013;DHT22;35901;48.694;9.476;2023-04-16T07:54:30;6.90;99.90
50013;DHT22;35901;48.694;9.476;2023-04-16T07:56:56;6.90;99.90
50013;DHT22;35901;48.694;9.476;2023-04-16T07:59:21;6.90;99.90
50013;DHT22;35901;48.694;9.476;2023-04-16T08:01:47;6.90;99.90
50013;DHT22;35901;48.694;9.476;2023-04-16T08:04:13;6.90;99.90
50013;DHT22;35901;48.694;9.476;2023-04-16T08:06:41;6.90;99.90
50013;DHT22;35901;48.694;9.476;2023-04-16T08:09:07;6.90;99.90
50013;DHT22;35901;48.694;9.476;2023-04-16T08:11:32;7.00;99.90
50013;DHT22;35901;48.694;9.476;2023-04-16T08:13:58;7.00;99.90
50013;DHT22;35901;48.694;9.476;2023-04-16T08:16:24;7.00;99.90
50013;DHT22;35901;48.694;9.476;2023-04-16T08:18:50;7.00;99.90
50013;DHT22;35901;48.694;9.476;2023-04-16T08:21:16;7.10;99.90
50013;DHT22;35901;48.694;9.476;2023-04-16T08:23:41;7.10;99.90
50013;DHT22;35901;48.694;9.476;2023-04-16T08:26:07;7.10;99.90
50013;DHT22;35901;48.694;9.476;2023-04-16T08:28:33;7.10;99.90
50013;DHT22;35901;48.694;9.476;2023-04-16T08:30:59;7.10;99.90
50013;DHT22;35901;48.694;9.476;2023-04-16T08:33:25;7.10;99.90
50013;DHT22;35901;48.694;9.476;2023-04-16T08:35:50;7.10;99.90
50013;DHT22;35901;48.694;9.476;2023-04-16T08:38:16;7.20;99.90
50013;DHT22;35901;48.694;9.476;2023-04-16T08:40:42;7.20;99.90
50013;DHT22;35901;48.694;9.476;2023-04-16T08:43:09;7.20;99.90
50013;DHT22;35901;48.694;9.476;2023-04-16T08:45:40;7.20;99.90
50013;DHT22;35901;48.694;9.476;2023-04-16T08:48:07;7.20;99.90
50013;DHT22;35901;48.694;9.476;2023-04-16T08:50:36;7.20;99.90
50013;DHT22;35901;48.694;9.476;2023-04-16T08:53:05;7.20;99.90
50013;DHT22;35901;48.694;9.476;2023-04-16T08:56:02;7.20;99.90
50013;DHT22;35901;48.694;9.476;2023-04-16T08:58:31;7.30;99.90
50013;DHT22;35901;48.694;9.476;2023-04-16T09:01:02;7.30;99.90
50013;DHT22;35901;48.694;9.476;2023-04-16T09:03:30;7.40;99.90
50013;DHT22;35901;48.694;9.476;2023-04-16T09:05:57;7.40;99.90
50013;DHT22;35901;48.694;9.476;2023-04-16T09:08:25;7.40;99.90
50013;DHT22;35901;48.694;9.476;2023-04-16T09:10:52;7.40;99.90
50013;DHT22;35901;48.694;9.476;2023-04-16T09:13:18;7.40;99.90
50013;DHT22;35901;48.694;9.476;2023-04-16T09:15:45;7.50;99.90
50013;DHT22;35901;48.694;9.476;2023-04-16T09:18:11;7.50;99.90
50013;DHT22;35901;48.694;9.476;2023-04-16T09:20:38;7.50;99.90
50013;DHT22;35901;48.694;9.476;2023-04-16T09:23:04;7.60;99.90
50013;DHT22;35901;48.694;9.476;2023-04-16T09:25:33;7.70;99.90
50013;DHT22;35901;48.694;9.476;2023-04-16T09:28:03;7.70;99.90
50013;DHT22;35901;48.694;9.476;2023-04-16T09:30:29;7.70;99.90
50013;DHT22;35901;48.694;9.476;2023-04-16T09:33:16;7.70;99.90
50013;DHT22;35901;48.694;9.476;2023-04-16T09:35:46;7.70;99.90
50013;DHT22;35901;48.694;9.476;2023-04-16T09:38:12;7.60;99.90
50013;DHT22;35901;48.694;9.476;2023-04-16T09:40:38;7.50;99.90
50013;DHT22;35901;48.694;9.476;2023-04-16T09:43:12;7.50;99.90
50013;DHT22;35901;48.694;9.476;2023-04-16T09:45:51;7.50;99.90
50013;DHT22;35901;48.694;9.476;2023-04-16T09:48:30;7.40;99.90
50013;DHT22;35901;48.694;9.476;2023-04-16T09:51:00;7.40;99.90
50013;DHT22;35901;48.694;9.476;2023-04-16T09:53:30;7.40;99.90
50013;DHT22;35901;48.694;9.476;2023-04-16T09:56:00;7.40;99.90
50013;DHT22;35901;48.694;9.476;2023-04-16T09:58:27;7.50;99.90
50013;DHT22;35901;48.694;9.476;2023-04-16T10:01:09;7.50;99.90
50013;DHT22;35901;48.694;9.476;2023-04-16T10:03:36;7.50;99.90
50013;DHT22;35901;48.694;9.476;2023-04-16T10:06:15;7.60;99.90
50013;DHT22;35901;48.694;9.476;2023-04-16T10:08:51;7.60;99.90
50013;DHT22;35901;48.694;9.476;2023-04-16T10:11:18;7.50;99.90
50013;DHT22;35901;48.694;9.476;2023-04-16T10:13:44;7.60;99.90
50013;DHT22;35901;48.694;9.476;2023-04-16T10:16:11;7.60;99.90
50013;DHT22;35901;48.694;9.476;2023-04-16T10:18:38;7.60;99.90
50013;DHT22;35901;48.694;9.476;2023-04-16T10:21:04;7.60;99.90
50013;DHT22;35901;48.694;9.476;2023-04-16T10:23:33;7.60;99.90
50013;DHT22;35901;48.694;9.476;2023-04-16T10:26:01;7.60;99.90
50013;DHT22;35901;48.694;9.476;2023-04-16T10:28:27;7.60;99.90
50013;DHT22;35901;48.694;9.476;2023-04-16T10:30:55;7.60;99.90
50013;DHT22;35901;48.694;9.476;2023-04-16T10:33:30;7.60;99.90
50013;DHT22;35901;48.694;9.476;2023-04-16T10:36:10;7.60;99.90
50013;DHT22;35901;48.694;9.476;2023-04-16T10:38:47;7.50;99.90
50013;DHT22;35901;48.694;9.476;2023-04-16T10:41:13;7.50;99.90
50013;DHT22;35901;48.694;9.476;2023-04-16T10:43:42;7.50;99.90
50013;DHT22;35901;48.694;9.476;2023-04-16T10:46:24;7.50;99.90
50013;DHT22;35901;48.694;9.476;2023-04-16T10:48:55;7.50;99.90
50013;DHT22;35901;48.694;9.476;2023-04-16T10:51:29;7.40;99.90
50013;DHT22;35901;48.694;9.476;2023-04-16T10:56:36;7.40;99.90
50013;DHT22;35901;48.694;9.476;2023-04-16T10:59:09;7.40;99.90
50013;DHT22;35901;48.694;9.476;2023-04-16T11:01:37;7.40;99.90
50013;DHT22;35901;48.694;9.476;2023-04-16T11:09:52;7.40;99.90
50013;DHT22;35901;48.694;9.476;2023-04-16T11:12:33;7.40;99.90
50013;DHT22;35901;48.694;9.476;2023-04-16T11:15:01;7.40;99.90
50013;DHT22;35901;48.694;9.476;2023-04-16T11:17:50;7.40;99.90
50013;DHT22;35901;48.694;9.476;2023-04-16T11:20:19;7.40;99.90
50013;DHT22;35901;48.694;9.476;2023-04-16T11:22:45;7.40;99.90
50013;DHT22;35901;48.694;9.476;2023-04-16T11:25:11;7.40;99.90
50013;DHT22;35901;48.694;9.476;2023-04-16T11:27:37;7.40;99.90
50013;DHT22;35901;48.694;9.476;2023-04-16T11:30:07;7.50;99.90
50013;DHT22;35901;48.694;9.476;2023-04-16T11:32:36;7.50;99.90
50013;DHT22;35901;48.694;9.476;2023-04-16T11:35:03;7.50;99.90
50013;DHT22;35901;48.694;9.476;2023-04-16T11:40:05;7.50;99.90
50013;DHT22;35901;48.694;9.476;2023-04-16T11:42:32;7.50;99.90
50013;DHT22;35901;48.694;9.476;2023-04-16T11:44:58;7.50;99.90
50013;DHT22;35901;48.694;9.476;2023-04-16T11:47:25;7.60;99.90
50013;DHT22;35901;48.694;9.476;2023-04-16T11:49:51;7.60;99.90
50013;DHT22;35901;48.694;9.476;2023-04-16T11:52:27;7.60;99.90
50013;DHT22;35901;48.694;9.476;2023-04-16T11:54:53;7.70;99.90
50013;DHT22;35901;48.694;9.476;2023-04-16T11:57:29;7.70;99.90
50013;DHT22;35901;48.694;9.476;2023-04-16T11:59:59;7.70;99.90
50013;DHT22;35901;48.694;9.476;2023-04-16T12:02:57;7.70;99.90
50013;DHT22;35901;48.694;9.476;2023-04-16T12:05:37;7.80;99.90
50013;DHT22;35901;48.694;9.476;2023-04-16T12:08:10;7.70;99.90
50013;DHT22;35901;48.694;9.476;2023-04-16T12:10:51;7.70;99.90
50013;DHT22;35901;48.694;9.476;2023-04-16T12:13:17;7.70;99.90
50013;DHT22;35901;48.694;9.476;2023-04-16T12:15:53;7.70;99.90
50013;DHT22;35901;48.694;9.476;2023-04-16T12:18:21;7.80;99.90
50013;DHT22;35901;48.694;9.476;2023-04-16T12:20:48;7.80;99.90
50013;DHT22;35901;48.694;9.476;2023-04-16T12:23:23;7.80;99.90
50013;DHT22;35901;48.694;9.476;2023-04-16T12:25:49;7.80;99.90
50013;DHT22;35901;48.694;9.476;2023-04-16T12:28:30;7.80;99.90
50013;DHT22;35901;48.694;9.476;2023-04-16T12:30:56;7.80;99.90
50013;DHT22;35901;48.694;9.476;2023-04-16T12:33:22;7.80;99.90
50013;DHT22;35901;48.694;9.476;2023-04-16T12:35:47;7.80;99.90
50013;DHT22;35901;48.694;9.476;2023-04-16T12:38:13;7.80;99.90
50013;DHT22;35901;48.694;9.476;2023-04-16T12:40:40;7.80;99.90
50013;DHT22;35901;48.694;9.476;2023-04-16T12:43:06;7.80;99.90
50013;DHT22;35901;48.694;9.476;2023-04-16T12:45:33;7.80;99.90
50013;DHT22;35901;48.694;9.476;2023-04-16T12:47:58;7.80;99.90
50013;DHT22;35901;48.694;9.476;2023-04-16T12:50:24;7.90;99.90
50013;DHT22;35901;48.694;9.476;2023-04-16T12:52:50;7.90;99.90
50013;DHT22;35901;48.694;9.476;2023-04-16T12:55:16;7.90;99.90
50013;DHT22;35901;48.694;9.476;2023-04-16T12:57:41;7.90;99.90
50013;DHT22;35901;48.694;9.476;2023-04-16T13:00:08;7.90;99.90
50013;DHT22;35901;48.694;9.476;2023-04-16T13:02:37;7.90;99.90
50013;DHT22;35901;48.694;9.476;2023-04-16T13:05:03;7.90;99.90
50013;DHT22;35901;48.694;9.476;2023-04-16T13:07:29;7.90;99.90
50013;DHT22;35901;48.694;9.476;2023-04-16T13:09:56;7.90;99.90
50013;DHT22;35901;48.694;9.476;2023-04-16T13:12:22;7.90;99.90
50013;DHT22;35901;48.694;9.476;2023-04-16T13:14:48;7.90;99.90
50013;DHT22;35901;48.694;9.476;2023-04-16T13:17:14;7.90;99.90
50013;DHT22;35901;48.694;9.476;2023-04-16T13:19:40;7.90;99.90
50013;DHT22;35901;48.694;9.476;2023-04-16T13:22:05;7.90;99.90
50013;DHT22;35901;48.694;9.476;2023-04-16T13:24:31;7.90;99.90
50013;DHT22;35901;48.694;9.476;2023-04-16T13:26:57;7.90;99.90
50013;DHT22;35901;48.694;9.476;2023-04-16T13:29:23;7.90;99.90
50013;DHT22;35901;48.694;9.476;2023-04-16T13:31:49;7.90;99.90
50013;DHT22;35901;48.694;9.476;2023-04-16T13:34:15;7.90;99.90
50013;DHT22;35901;48.694;9.476;2023-04-16T13:36:41;7.90;99.90
50013;DHT22;35901;48.694;9.476;2023-04-16T13:39:06;7.90;99.90
50013;DHT22;35901;48.694;9.476;2023-04-16T13:41:36;7.90;99.90
50013;DHT22;35901;48.694;9.476;2023-04-16T13:44:02;7.90;99.90
50013;DHT22;35901;48.694;9.476;2023-04-16T13:46:27;7.80;99.90
50013;DHT22;35901;48.694;9.476;2023-04-16T13:48:54;7.80;99.90
50013;DHT22;35901;48.694;9.476;2023-04-16T13:51:20;7.80;99.90
50013;DHT22;35901;48.694;9.476;2023-04-16T13:53:46;7.80;99.90
50013;DHT22;35901;48.694;9.476;2023-04-16T13:56:12;7.80;99.90
50013;DHT22;35901;48.694;9.476;2023-04-16T13:58:38;7.80;99.90
50013;DHT22;35901;48.694;9.476;2023-04-16T14:01:03;7.90;99.90
50013;DHT22;35901;48.694;9.476;2023-04-16T14:03:29;7.90;99.90
50013;DHT22;35901;48.694;9.476;2023-04-16T14:06:03;7.90;99.90
50013;DHT22;35901;48.694;9.476;2023-04-16T14:08:29;7.90;99.90
50013;DHT22;35901;48.694;9.476;2023-04-16T14:10:55;7.90;99.90
50013;DHT22;35901;48.694;9.476;2023-04-16T14:13:21;7.90;99.90
50013;DHT22;35901;48.694;9.476;2023-04-16T14:15:47;7.90;99.90
50013;DHT22;35901;48.694;9.476;2023-04-16T14:18:12;7.90;99.90
50013;DHT22;35901;48.694;9.476;2023-04-16T14:20:39;7.90;99.90
50013;DHT22;35901;48.694;9.476;2023-04-16T14:23:05;7.90;99.90
50013;DHT22;35901;48.694;9.476;2023-04-16T14:25:31;7.90;99.90
50013;DHT22;35901;48.694;9.476;2023-04-16T14:28:00;7.90;99.90
50013;DHT22;35901;48.694;9.476;2023-04-16T14:30:26;7.90;99.90
50013;DHT22;35901;48.694;9.476;2023-04-16T14:32:52;7.90;99.90
50013;DHT22;35901;48.694;9.476;2023-04-16T14:35:18;7.90;99.90
50013;DHT22;35901;48.694;9.476;2023-04-16T14:37:44;7.90;99.90
50013;DHT22;35901;48.694;9.476;2023-04-16T14:40:12;7.90;99.90
50013;DHT22;35901;48.694;9.476;2023-04-16T14:42:38;7.90;99.90
50013;DHT22;35901;48.694;9.476;2023-04-16T14:45:05;7.90;99.90
50013;DHT22;35901;48.694;9.476;2023-04-16T14:47:32;7.90;99.90
50013;DHT22;35901;48.694;9.476;2023-04-16T14:49:59;7.90;99.90
50013;DHT22;35901;48.694;9.476;2023-04-16T14:52:25;7.90;99.90
50013;DHT22;35901;48.694;9.476;2023-04-16T14:54:52;8.00;99.90
50013;DHT22;35901;48.694;9.476;2023-04-16T14:57:20;7.90;99.90
50013;DHT22;35901;48.694;9.476;2023-04-16T14:59:45;8.00;99.90
50013;DHT22;35901;48.694;9.476;2023-04-16T15:02:11;8.00;99.90
50013;DHT22;35901;48.694;9.476;2023-04-16T15:04:37;8.00;99.90
50013;DHT22;35901;48.694;9.476;2023-04-16T15:07:03;8.00;99.90
50013;DHT22;35901;48.694;9.476;2023-04-16T15:09:29;8.00;99.90
50013;DHT22;35901;48.694;9.476;2023-04-16T15:11:56;8.00;99.90
50013;DHT22;35901;48.694;9.476;2023-04-16T15:14:22;8.00;99.90
50013;DHT22;35901;48.694;9.476;2023-04-16T15:16:48;8.00;99.90
50013;DHT22;35901;48.694;9.476;2023-04-16T15:19:14;8.00;99.90
50013;DHT22;35901;48.694;9.476;2023-04-16T15:21:40;8.00;99.90
50013;DHT22;35901;48.694;9.476;2023-04-16T15:24:06;8.00;99.90
50013;DHT22;35901;48.694;9.476;2023-04-16T15:26:32;8.00;99.90
50013;DHT22;35901;48.694;9.476;2023-04-16T15:28:58;8.00;99.90
50013;DHT22;35901;48.694;9.476;2023-04-16T15:31:24;8.00;99.90
50013;DHT22;35901;48.694;9.476;2023-04-16T15:33:51;8.00;99.90
50013;DHT22;35901;48.694;9.476;2023-04-16T15:36:17;8.00;99.90
50013;DHT22;35901;48.694;9.476;2023-04-16T15:38:43;7.90;99.90
50013;DHT22;35901;48.694;9.476;2023-04-16T15:41:09;7.90;99.90
50013;DHT22;35901;48.694;9.476;2023-04-16T15:43:35;7.90;99.90
50013;DHT22;35901;48.694;9.476;2023-04-16T15:46:01;7.90;99.90
50013;DHT22;35901;48.694;9.476;2023-04-16T15:48:26;7.90;99.90
50013;DHT22;35901;48.694;9.476;2023-04-16T15:50:53;7.90;99.90
50013;DHT22;35901;48.694;9.476;2023-04-16T15:53:18;7.90;99.90
50013;DHT22;35901;48.694;9.476;2023-04-16T15:55:44;7.90;99.90
50013;DHT22;35901;48.694;9.476;2023-04-16T15:58:10;7.90;99.90
50013;DHT22;35901;48.694;9.476;2023-04-16T16:00:37;8.00;99.90